createdAt,value
2023-05-25T00:02:06.383Z,0.60
2023-05-25T00:04:35.501Z,0.50
2023-05-25T00:07:05.586Z,0.57
2023-05-25T00:09:33.659Z,1.23
2023-05-25T00:12:02.003Z,0.38
2023-05-25T00:14:31.139Z,0.60
2023-05-25T00:17:03.651Z,0.35
2023-05-25T00:19:34.055Z,0.70
2023-05-25T00:22:02.404Z,0.65
2023-05-25T00:24:32.174Z,0.88
2023-05-25T00:27:00.670Z,0.55
2023-05-25T00:29:28.788Z,0.60
2023-05-25T00:31:56.894Z,0.40
2023-05-25T00:34:25.096Z,0.50
2023-05-25T00:36:53.297Z,1.02
2023-05-25T00:39:22.346Z,0.45
2023-05-25T00:41:51.880Z,0.60
2023-05-25T00:44:21.668Z,0.43
2023-05-25T00:46:52.297Z,0.77
2023-05-25T00:49:23.097Z,0.45
2023-05-25T00:51:53.498Z,1.00
2023-05-25T00:54:21.998Z,0.70
2023-05-25T00:56:54.133Z,0.65
2023-05-25T00:59:30.954Z,0.50
2023-05-25T01:02:04.711Z,0.70
2023-05-25T01:04:35.919Z,0.52
2023-05-25T01:07:06.170Z,0.50
2023-05-25T01:09:36.218Z,0.88
2023-05-25T01:12:06.652Z,0.10
2023-05-25T01:14:36.933Z,0.40
2023-05-25T01:17:06.628Z,0.43
2023-05-25T01:19:35.967Z,0.45
2023-05-25T01:22:09.312Z,0.50
2023-05-25T01:24:41.928Z,0.52
2023-05-25T01:27:15.809Z,0.30
2023-05-25T01:29:46.788Z,0.63
2023-05-25T01:32:15.653Z,0.35
2023-05-25T01:34:45.256Z,0.65
2023-05-25T01:37:17.434Z,1.08
2023-05-25T01:39:45.713Z,0.63
2023-05-25T01:42:13.943Z,0.50
2023-05-25T01:44:42.559Z,0.35
2023-05-25T01:47:19.039Z,0.73
2023-05-25T01:49:54.626Z,0.60
2023-05-25T01:52:27.559Z,0.43
2023-05-25T01:55:02.327Z,0.60
2023-05-25T01:57:31.502Z,0.90
2023-05-25T02:00:03.139Z,0.80
2023-05-25T02:02:32.964Z,0.73
2023-05-25T02:05:01.527Z,0.60
2023-05-25T02:07:30.949Z,0.28
2023-05-25T02:09:59.060Z,0.93
2023-05-25T02:12:27.309Z,0.40
2023-05-25T02:14:55.422Z,0.43
2023-05-25T02:17:28.785Z,0.30
2023-05-25T02:19:56.922Z,0.77
2023-05-25T02:22:25.568Z,0.40
2023-05-25T02:24:55.006Z,0.38
2023-05-25T02:27:23.142Z,0.85
2023-05-25T02:29:53.202Z,0.50
2023-05-25T02:32:21.274Z,0.50
2023-05-25T02:34:49.469Z,0.52
2023-05-25T02:37:17.557Z,0.43
2023-05-25T02:39:45.646Z,0.50
2023-05-25T02:42:15.164Z,0.65
2023-05-25T02:44:48.311Z,0.50
2023-05-25T02:47:16.603Z,0.60
2023-05-25T02:49:44.671Z,0.90
2023-05-25T02:52:13.012Z,0.55
2023-05-25T02:54:41.691Z,0.77
2023-05-25T02:57:10.294Z,0.32
2023-05-25T02:59:39.830Z,0.88
2023-05-25T03:02:07.927Z,0.57
2023-05-25T03:04:38.043Z,0.50
2023-05-25T03:07:06.398Z,0.30
2023-05-25T03:09:34.580Z,0.40
2023-05-25T03:12:02.706Z,0.30
2023-05-25T03:14:30.787Z,0.30
2023-05-25T03:17:00.350Z,0.25
2023-05-25T03:19:28.385Z,0.40
2023-05-25T03:21:56.669Z,0.55
2023-05-25T03:24:24.730Z,0.52
2023-05-25T03:26:52.745Z,0.40
2023-05-25T03:29:20.906Z,0.47
2023-05-25T03:31:49.078Z,0.70
2023-05-25T03:34:18.533Z,0.20
2023-05-25T03:36:47.579Z,0.38
2023-05-25T03:39:15.675Z,0.50
2023-05-25T03:41:44.194Z,0.33
2023-05-25T03:44:12.325Z,0.57
2023-05-25T03:46:40.913Z,0.30
2023-05-25T03:49:13.690Z,0.57
2023-05-25T03:51:45.148Z,0.32
2023-05-25T03:54:13.201Z,0.28
2023-05-25T03:56:41.435Z,0.57
2023-05-25T03:59:09.478Z,0.38
2023-05-25T04:01:38.943Z,0.47
2023-05-25T04:04:07.848Z,0.80
2023-05-25T04:06:37.273Z,0.23
2023-05-25T04:09:06.804Z,0.63
2023-05-25T04:11:34.912Z,0.68
2023-05-25T04:14:02.932Z,0.65
2023-05-25T04:16:31.049Z,0.63
2023-05-25T04:18:59.252Z,0.70
2023-05-25T04:21:27.551Z,0.47
2023-05-25T04:23:55.814Z,0.75
2023-05-25T04:26:26.450Z,0.47
2023-05-25T04:28:55.903Z,0.70
2023-05-25T04:31:25.015Z,0.47
2023-05-25T04:33:53.121Z,0.60
2023-05-25T04:36:21.183Z,0.50
2023-05-25T04:38:52.199Z,0.80
2023-05-25T04:41:20.435Z,0.80
2023-05-25T04:44:05.815Z,0.50
2023-05-25T04:46:37.691Z,0.77
2023-05-25T04:49:06.316Z,0.40
2023-05-25T04:51:34.425Z,0.73
2023-05-25T04:54:02.529Z,0.63
2023-05-25T04:56:30.596Z,0.50
2023-05-25T04:59:00.230Z,0.63
2023-05-25T05:01:29.230Z,0.68
2023-05-25T05:03:57.454Z,0.60
2023-05-25T05:06:25.940Z,0.70
2023-05-25T05:08:53.996Z,0.68
2023-05-25T05:11:23.537Z,0.65
2023-05-25T05:13:51.546Z,0.65
2023-05-25T05:16:20.943Z,0.73
2023-05-25T05:18:49.049Z,0.63
2023-05-25T05:21:17.086Z,0.73
2023-05-25T05:23:45.452Z,0.50
2023-05-25T05:26:15.279Z,0.77
2023-05-25T05:28:43.522Z,0.90
2023-05-25T05:31:12.206Z,0.85
2023-05-25T05:33:41.939Z,0.47
2023-05-25T05:36:10.895Z,0.93
2023-05-25T05:38:40.319Z,0.73
2023-05-25T05:41:13.465Z,0.65
2023-05-25T05:43:43.021Z,0.80
2023-05-25T05:46:11.632Z,0.43
2023-05-25T05:48:41.865Z,0.60
2023-05-25T05:51:09.901Z,1.17
2023-05-25T05:53:37.946Z,0.80
2023-05-25T05:56:07.151Z,0.70
2023-05-25T05:58:35.275Z,1.25
2023-05-25T06:01:03.352Z,0.77
2023-05-25T06:03:31.388Z,1.02
2023-05-25T06:06:01.028Z,1.48
2023-05-25T06:08:29.210Z,2.25
2023-05-25T06:10:57.260Z,1.00
2023-05-25T06:13:25.396Z,1.30
2023-05-25T06:15:53.516Z,1.35
2023-05-25T06:18:21.577Z,1.08
2023-05-25T06:20:49.694Z,1.33
2023-05-25T06:23:19.445Z,1.48
2023-05-25T06:25:47.921Z,1.48
2023-05-25T06:28:16.584Z,1.90
2023-05-25T06:30:44.731Z,1.10
2023-05-25T06:33:12.772Z,1.10
2023-05-25T06:35:40.903Z,1.38
2023-05-25T06:38:08.950Z,1.35
2023-05-25T06:40:38.417Z,1.30
2023-05-25T06:43:06.515Z,1.65
2023-05-25T06:45:34.622Z,1.80
2023-05-25T06:48:02.704Z,1.45
2023-05-25T06:50:30.790Z,1.42
2023-05-25T06:53:00.427Z,2.10
2023-05-25T06:55:28.791Z,1.50
2023-05-25T06:57:58.672Z,1.05
2023-05-25T07:00:27.045Z,1.00
2023-05-25T07:02:55.220Z,0.93
2023-05-25T07:05:23.638Z,1.48
2023-05-25T07:07:51.860Z,1.40
2023-05-25T07:10:20.040Z,1.08
2023-05-25T07:12:48.152Z,1.17
2023-05-25T07:15:17.706Z,1.65
2023-05-25T07:17:46.010Z,1.48
2023-05-25T07:20:14.464Z,0.95
2023-05-25T07:22:43.599Z,1.30
2023-05-25T07:25:11.727Z,0.98
2023-05-25T07:27:40.127Z,1.33
2023-05-25T07:30:09.506Z,1.15
2023-05-25T07:32:39.214Z,1.35
2023-05-25T07:35:08.047Z,1.45
2023-05-25T07:37:36.087Z,1.23
2023-05-25T07:40:04.358Z,1.40
2023-05-25T07:42:34.366Z,1.15
2023-05-25T07:45:02.503Z,1.10
2023-05-25T07:47:30.789Z,1.27
2023-05-25T07:50:00.328Z,1.38
2023-05-25T07:52:28.415Z,1.33
2023-05-25T07:54:56.571Z,2.97
2023-05-25T07:57:25.314Z,1.42
2023-05-25T07:59:53.609Z,1.10
2023-05-25T08:02:21.974Z,1.30
2023-05-25T08:04:50.529Z,0.90
2023-05-25T08:07:20.903Z,0.85
2023-05-25T08:09:49.200Z,0.93
2023-05-25T08:14:48.429Z,1.05
2023-05-25T08:17:16.723Z,0.70
2023-05-25T08:19:44.909Z,0.90
2023-05-25T08:22:12.932Z,1.30
2023-05-25T08:24:42.467Z,1.38
2023-05-25T08:27:10.614Z,1.05
2023-05-25T08:29:38.739Z,1.15
2023-05-25T08:32:07.312Z,1.00
2023-05-25T08:34:35.500Z,1.00
2023-05-25T08:37:03.612Z,1.00
2023-05-25T08:39:34.108Z,0.88
2023-05-25T08:42:05.024Z,0.95
2023-05-25T08:44:33.232Z,1.27
2023-05-25T08:47:07.385Z,1.10
2023-05-25T08:49:39.284Z,0.90
2023-05-25T08:52:11.615Z,1.00
2023-05-25T08:54:40.308Z,0.80
2023-05-25T08:57:16.266Z,1.02
2023-05-25T08:59:49.065Z,1.08
2023-05-25T09:02:26.869Z,0.80
2023-05-25T09:04:56.016Z,1.00
2023-05-25T09:07:25.788Z,0.90
2023-05-25T09:09:55.259Z,0.80
2023-05-25T09:12:25.115Z,0.98
2023-05-25T09:14:54.861Z,1.08
2023-05-25T09:17:23.544Z,1.10
2023-05-25T09:19:52.108Z,1.38
2023-05-25T09:22:20.294Z,1.20
2023-05-25T09:24:48.725Z,1.20
2023-05-25T09:27:20.069Z,1.10
2023-05-25T09:29:51.082Z,0.88
2023-05-25T09:32:20.184Z,0.95
2023-05-25T09:34:48.807Z,0.80
2023-05-25T09:37:19.456Z,1.30
2023-05-25T09:39:48.846Z,1.45
2023-05-25T09:42:17.584Z,1.35
2023-05-25T09:44:45.915Z,1.13
2023-05-25T09:47:17.098Z,1.10
2023-05-25T09:49:47.623Z,0.90
2023-05-25T09:52:16.604Z,1.27
2023-05-25T09:54:46.626Z,1.00
2023-05-25T09:57:16.204Z,1.30
2023-05-25T09:59:45.397Z,1.05
2023-05-25T10:02:15.569Z,2.05
2023-05-25T10:04:43.837Z,0.80
2023-05-25T10:07:12.970Z,1.30
2023-05-25T10:09:42.699Z,1.75
2023-05-25T10:12:11.324Z,1.00
2023-05-25T10:14:39.950Z,1.27
2023-05-25T10:17:09.979Z,1.60
2023-05-25T10:19:43.343Z,1.40
2023-05-25T10:22:17.628Z,1.10
2023-05-25T10:24:54.592Z,1.50
2023-05-25T10:27:27.414Z,1.52
2023-05-25T10:29:57.781Z,1.10
2023-05-25T10:32:27.405Z,1.30
2023-05-25T10:34:59.341Z,1.92
2023-05-25T10:37:29.180Z,1.13
2023-05-25T10:39:59.041Z,1.05
2023-05-25T10:42:29.690Z,1.25
2023-05-25T10:44:58.373Z,1.10
2023-05-25T10:47:27.129Z,1.70
2023-05-25T10:49:58.505Z,1.95
2023-05-25T10:52:28.979Z,1.52
2023-05-25T10:54:58.087Z,1.63
2023-05-25T10:57:27.148Z,1.45
2023-05-25T11:00:01.568Z,1.48
2023-05-25T11:02:32.193Z,2.35
2023-05-25T11:05:34.202Z,1.70
2023-05-25T11:08:06.454Z,1.40
2023-05-25T11:11:00.688Z,1.73
2023-05-25T11:13:41.212Z,2.15
2023-05-25T11:16:24.524Z,1.10
2023-05-25T11:18:57.861Z,1.02
2023-05-25T11:21:45.238Z,1.15
2023-05-25T11:24:16.252Z,1.35
2023-05-25T11:26:56.669Z,1.35
2023-05-25T11:29:27.312Z,1.58
2023-05-25T11:31:56.853Z,1.52
2023-05-25T11:34:26.125Z,1.42
2023-05-25T11:37:01.734Z,1.33
2023-05-25T11:39:32.554Z,1.40
2023-05-25T11:42:06.826Z,1.05
2023-05-25T11:44:37.003Z,1.42
2023-05-25T11:47:10.145Z,1.65
2023-05-25T11:49:41.759Z,1.30
2023-05-25T11:52:10.381Z,1.60
2023-05-25T11:54:41.935Z,1.50
2023-05-25T11:57:16.771Z,1.23
2023-05-25T11:59:50.119Z,1.10
2023-05-25T12:02:18.184Z,1.10
2023-05-25T12:04:55.252Z,1.90
2023-05-25T12:07:23.771Z,1.38
2023-05-25T12:09:53.317Z,1.00
2023-05-25T12:12:21.514Z,1.25
2023-05-25T12:14:50.125Z,1.25
2023-05-25T12:17:19.661Z,1.17
2023-05-25T12:19:48.061Z,1.52
2023-05-25T12:22:16.541Z,1.23
2023-05-25T12:24:44.736Z,1.30
2023-05-25T12:27:22.623Z,0.90
2023-05-25T12:29:53.162Z,1.13
2023-05-25T12:32:21.464Z,1.70
2023-05-25T12:34:49.594Z,1.00
2023-05-25T12:37:22.206Z,1.23
2023-05-25T12:39:51.662Z,1.00
2023-05-25T12:42:21.387Z,1.33
2023-05-25T12:44:57.868Z,1.00
2023-05-25T12:47:28.602Z,1.05
2023-05-25T12:50:12.938Z,1.10
2023-05-25T12:52:43.026Z,0.95
2023-05-25T12:55:27.263Z,1.10
2023-05-25T12:57:58.445Z,1.10
2023-05-25T13:00:28.398Z,0.95
2023-05-25T13:02:56.577Z,1.77
2023-05-25T13:05:26.579Z,1.10
2023-05-25T13:07:56.084Z,1.17
2023-05-25T13:10:25.093Z,1.40
2023-05-25T13:12:56.199Z,1.40
2023-05-25T13:15:26.766Z,1.88
2023-05-25T13:17:56.467Z,1.50
2023-05-25T13:20:27.138Z,1.50
2023-05-25T13:22:56.491Z,1.58
2023-05-25T13:25:27.248Z,1.67
2023-05-25T13:27:57.803Z,1.50
2023-05-25T13:30:28.034Z,1.95
2023-05-25T13:32:56.135Z,1.83
2023-05-25T13:35:37.929Z,1.98
2023-05-25T13:38:06.496Z,1.50
2023-05-25T13:40:34.706Z,1.65
2023-05-25T13:43:03.324Z,1.55
2023-05-25T13:45:32.954Z,2.47
2023-05-25T13:48:01.565Z,2.25
2023-05-25T13:50:29.842Z,1.50
2023-05-25T13:52:58.089Z,1.92
2023-05-25T13:55:26.468Z,2.33
2023-05-25T13:57:54.584Z,1.92
2023-05-25T14:00:23.194Z,2.10
2023-05-25T14:02:52.984Z,2.30
2023-05-25T14:05:21.698Z,1.98
2023-05-25T14:07:50.133Z,2.13
2023-05-25T14:10:18.232Z,1.98
2023-05-25T14:12:46.734Z,2.35
2023-05-25T14:15:14.923Z,2.20
2023-05-25T14:17:43.124Z,2.08
2023-05-25T14:20:16.255Z,2.17
2023-05-25T14:22:44.504Z,2.28
2023-05-25T14:25:12.750Z,2.00
2023-05-25T14:27:40.979Z,1.80
2023-05-25T14:30:10.196Z,1.98
2023-05-25T14:32:38.435Z,2.17
2023-05-25T14:35:07.504Z,1.70
2023-05-25T14:37:37.026Z,1.70
2023-05-25T14:40:06.136Z,2.03
2023-05-25T14:42:34.246Z,2.05
2023-05-25T14:45:02.349Z,1.75
2023-05-25T14:47:30.505Z,1.67
2023-05-25T14:49:58.719Z,1.98
2023-05-25T14:52:26.879Z,1.52
2023-05-25T14:54:56.410Z,1.83
2023-05-25T14:57:24.638Z,1.90
2023-05-25T14:59:52.868Z,1.35
2023-05-25T15:02:21.072Z,3.30
2023-05-25T15:04:49.390Z,2.05
2023-05-25T15:07:17.674Z,1.60
2023-05-25T15:09:46.381Z,1.33
2023-05-25T15:12:16.052Z,1.80
2023-05-25T15:14:44.117Z,1.90
2023-05-25T15:17:12.434Z,1.50
2023-05-25T15:19:40.512Z,1.55
2023-05-25T15:22:08.646Z,1.40
2023-05-25T15:24:36.782Z,1.40
2023-05-25T15:27:06.558Z,1.65
2023-05-25T15:29:36.135Z,1.33
2023-05-25T15:32:04.344Z,1.38
2023-05-25T15:34:32.497Z,1.42
2023-05-25T15:37:02.348Z,1.33
2023-05-25T15:39:30.793Z,1.30
2023-05-25T15:42:01.573Z,1.40
2023-05-25T15:44:30.330Z,1.70
2023-05-25T15:46:59.846Z,1.38
2023-05-25T15:49:27.937Z,1.25
2023-05-25T15:51:56.135Z,1.05
2023-05-25T15:54:24.361Z,1.23
2023-05-25T15:56:52.486Z,1.30
2023-05-25T15:59:20.600Z,1.30
2023-05-25T16:01:48.841Z,1.20
2023-05-25T16:04:19.011Z,1.00
2023-05-25T16:06:48.569Z,1.10
2023-05-25T16:09:18.156Z,1.08
2023-05-25T16:11:46.312Z,1.45
2023-05-25T16:14:14.404Z,1.40
2023-05-25T16:16:42.791Z,1.10
2023-05-25T16:19:13.690Z,1.05
2023-05-25T16:21:43.811Z,1.50
2023-05-25T16:24:12.291Z,1.42
2023-05-25T16:26:40.465Z,1.20
2023-05-25T16:29:08.752Z,1.08
2023-05-25T16:31:37.051Z,1.00
2023-05-25T16:34:05.364Z,1.13
2023-05-25T16:36:33.768Z,1.00
2023-05-25T16:39:03.656Z,0.98
2023-05-25T16:41:32.095Z,1.55
2023-05-25T16:44:00.648Z,0.90
2023-05-25T16:46:28.894Z,0.95
2023-05-25T16:48:57.077Z,0.88
2023-05-25T16:51:25.852Z,1.08
2023-05-25T16:53:54.336Z,0.98
2023-05-25T16:56:24.688Z,1.27
2023-05-25T16:58:52.841Z,1.10
2023-05-25T17:01:20.951Z,1.40
2023-05-25T17:03:49.304Z,1.33
2023-05-25T17:06:17.566Z,1.20
2023-05-25T17:08:45.691Z,1.00
2023-05-25T17:11:13.771Z,1.00
2023-05-25T17:13:43.235Z,0.70
2023-05-25T17:16:11.345Z,0.90
2023-05-25T17:18:41.667Z,0.90
2023-05-25T17:21:09.846Z,0.90
2023-05-25T17:23:37.959Z,0.98
2023-05-25T17:26:06.296Z,1.05
2023-05-25T17:28:34.446Z,0.82
2023-05-25T17:31:03.934Z,0.52
2023-05-25T17:33:32.010Z,0.80
2023-05-25T17:36:00.348Z,0.82
2023-05-25T17:38:28.461Z,0.57
2023-05-25T17:40:56.882Z,0.70
2023-05-25T17:43:25.121Z,0.85
2023-05-25T17:45:53.461Z,0.93
2023-05-25T17:48:23.077Z,0.60
2023-05-25T17:50:51.169Z,0.90
2023-05-25T17:53:19.369Z,0.85
2023-05-25T17:55:47.547Z,0.80
2023-05-25T17:58:16.453Z,0.60
2023-05-25T18:00:44.628Z,0.70
2023-05-25T18:03:12.778Z,0.80
2023-05-25T18:05:42.446Z,2.25
2023-05-25T18:08:10.816Z,0.80
2023-05-25T18:10:38.896Z,1.48
2023-05-25T18:13:07.161Z,0.93
2023-05-25T18:15:35.294Z,0.85
2023-05-25T18:18:03.828Z,1.48
2023-05-25T18:20:32.049Z,1.05
2023-05-25T18:23:03.339Z,0.85
2023-05-25T18:25:31.545Z,0.65
2023-05-25T18:27:59.664Z,1.13
2023-05-25T18:30:27.758Z,0.85
2023-05-25T18:32:56.043Z,0.77
2023-05-25T18:35:24.181Z,0.80
2023-05-25T18:37:52.321Z,0.80
2023-05-25T18:40:21.830Z,0.55
2023-05-25T18:42:50.908Z,0.80
2023-05-25T18:45:19.115Z,0.80
2023-05-25T18:47:47.486Z,0.70
2023-05-25T18:50:16.029Z,0.63
2023-05-25T18:52:44.257Z,1.00
2023-05-25T18:55:12.501Z,0.90
2023-05-25T18:57:42.136Z,0.88
2023-05-25T19:00:11.424Z,1.00
2023-05-25T19:02:39.918Z,0.70
2023-05-25T19:05:11.341Z,1.13
2023-05-25T19:07:50.710Z,0.75
2023-05-25T19:10:23.432Z,0.50
2023-05-25T19:12:53.030Z,0.55
2023-05-25T19:15:21.300Z,0.77
2023-05-25T19:17:49.631Z,0.73
2023-05-25T19:20:18.124Z,0.73
2023-05-25T19:22:46.508Z,0.70
2023-05-25T19:25:14.903Z,0.85
2023-05-25T19:27:43.015Z,1.25
2023-05-25T19:30:13.455Z,0.63
2023-05-25T19:32:41.973Z,0.90
2023-05-25T19:35:10.815Z,1.00
2023-05-25T19:37:40.788Z,0.73
2023-05-25T19:40:11.053Z,0.88
2023-05-25T19:42:39.351Z,0.85
2023-05-25T19:45:08.315Z,0.80
2023-05-25T19:47:38.136Z,0.57
2023-05-25T19:50:07.255Z,1.48
2023-05-25T19:52:35.503Z,0.88
2023-05-25T19:55:03.726Z,0.70
2023-05-25T19:57:31.974Z,0.52
2023-05-25T20:00:00.259Z,0.90
2023-05-25T20:02:28.700Z,0.70
2023-05-25T20:04:58.371Z,0.75
2023-05-25T20:07:26.533Z,0.73
2023-05-25T20:09:54.659Z,1.45
2023-05-25T20:12:22.903Z,1.65
2023-05-25T20:14:51.012Z,1.23
2023-05-25T20:17:19.154Z,0.82
2023-05-25T20:19:47.360Z,1.08
2023-05-25T20:22:17.010Z,0.60
2023-05-25T20:24:45.375Z,0.63
2023-05-25T20:27:14.871Z,1.10
2023-05-25T20:29:43.163Z,0.90
2023-05-25T20:32:11.588Z,0.63
2023-05-25T20:34:39.880Z,0.68
2023-05-25T20:37:08.174Z,1.08
2023-05-25T20:39:37.925Z,0.90
2023-05-25T20:42:06.976Z,0.50
2023-05-25T20:44:35.085Z,0.63
2023-05-25T20:47:03.583Z,0.90
2023-05-25T20:49:31.711Z,0.50
2023-05-25T20:51:59.807Z,0.77
2023-05-25T20:54:28.295Z,0.85
2023-05-25T20:56:58.246Z,0.65
2023-05-25T20:59:26.479Z,0.80
2023-05-25T21:01:54.861Z,0.70
2023-05-25T21:04:23.315Z,1.15
2023-05-25T21:06:51.603Z,0.65
2023-05-25T21:09:19.839Z,1.13
2023-05-25T21:11:48.027Z,0.55
2023-05-25T21:14:17.575Z,1.00
2023-05-25T21:19:15.730Z,0.70
2023-05-25T21:21:43.828Z,0.50
2023-05-25T21:24:12.022Z,0.80
2023-05-25T21:26:40.263Z,0.80
2023-05-25T21:29:08.791Z,0.70
2023-05-25T21:31:38.266Z,0.93
2023-05-25T21:34:06.647Z,1.02
2023-05-25T21:36:34.857Z,0.85
2023-05-25T21:39:03.301Z,1.13
2023-05-25T21:41:31.862Z,0.85
2023-05-25T21:44:00.233Z,0.70
2023-05-25T21:46:28.570Z,0.80
2023-05-25T21:48:58.190Z,0.82
2023-05-25T21:51:26.472Z,0.60
2023-05-25T21:53:54.697Z,1.17
2023-05-25T21:56:23.928Z,1.75
2023-05-25T21:58:52.132Z,0.70
2023-05-25T22:01:20.393Z,2.50
2023-05-25T22:03:48.578Z,0.80
2023-05-25T22:06:18.315Z,0.52
2023-05-25T22:08:46.460Z,0.65
2023-05-25T22:11:14.665Z,0.63
2023-05-25T22:13:42.912Z,0.50
2023-05-25T22:16:11.552Z,1.00
2023-05-25T22:18:39.742Z,0.68
2023-05-25T22:21:07.955Z,0.70
2023-05-25T22:23:37.428Z,0.60
2023-05-25T22:26:05.759Z,0.90
2023-05-25T22:28:33.961Z,0.60
2023-05-25T22:31:02.186Z,0.55
2023-05-25T22:33:30.678Z,0.57
2023-05-25T22:35:58.728Z,0.65
2023-05-25T22:38:26.757Z,0.60
2023-05-25T22:40:56.159Z,0.45
2023-05-25T22:43:24.281Z,0.80
2023-05-25T22:45:54.016Z,0.50
2023-05-25T22:48:22.436Z,0.95
2023-05-25T22:50:50.557Z,0.73
2023-05-25T22:53:19.949Z,0.95
2023-05-25T22:55:48.268Z,0.40
2023-05-25T22:58:17.976Z,1.50
2023-05-25T23:00:46.085Z,0.40
2023-05-25T23:03:14.395Z,0.30
2023-05-25T23:05:42.700Z,0.70
2023-05-25T23:08:10.870Z,0.73
2023-05-25T23:10:39.019Z,0.55
2023-05-25T23:13:07.612Z,0.38
2023-05-25T23:15:39.949Z,0.47
2023-05-25T23:18:08.275Z,0.70
2023-05-25T23:20:36.468Z,0.22
2023-05-25T23:23:04.590Z,0.52
2023-05-25T23:25:32.670Z,0.30
2023-05-25T23:28:00.810Z,0.20
2023-05-25T23:30:28.992Z,1.10
2023-05-25T23:32:58.374Z,1.10
2023-05-25T23:35:26.779Z,0.40
2023-05-25T23:37:54.887Z,0.20
2023-05-25T23:40:22.988Z,0.38
2023-05-25T23:42:52.450Z,0.40
2023-05-25T23:45:20.827Z,0.13
2023-05-25T23:47:49.110Z,0.28
2023-05-25T23:50:18.776Z,0.30
2023-05-25T23:52:47.484Z,0.35
2023-05-25T23:55:15.783Z,0.10
2023-05-25T23:57:44.031Z,0.25
